createdAt,value
2023-01-07T00:01:49.544Z,9.98
2023-01-07T00:04:16.506Z,10.60
2023-01-07T00:06:44.301Z,12.77
2023-01-07T00:09:16.622Z,8.60
2023-01-07T00:11:43.665Z,12.90
2023-01-07T00:14:11.852Z,11.48
2023-01-07T00:16:38.836Z,11.85
2023-01-07T00:19:06.535Z,10.70
2023-01-07T00:21:33.547Z,7.93
2023-01-07T00:24:01.960Z,9.93
2023-01-07T00:26:34.145Z,9.85
2023-01-07T00:29:01.139Z,12.38
2023-01-07T00:31:29.805Z,10.88
2023-01-07T00:33:56.857Z,10.13
2023-01-07T00:36:25.582Z,7.45
2023-01-07T00:38:56.518Z,10.10
2023-01-07T00:41:23.581Z,9.63
2023-01-07T00:43:50.478Z,8.40
2023-01-07T00:46:17.549Z,10.30
2023-01-07T00:48:45.844Z,10.45
2023-01-07T00:51:13.985Z,9.63
2023-01-07T00:53:40.807Z,8.70
2023-01-07T00:56:09.097Z,11.52
2023-01-07T00:58:35.949Z,10.05
2023-01-07T01:01:03.194Z,8.57
2023-01-07T01:03:30.871Z,9.38
2023-01-07T01:06:09.140Z,11.50
2023-01-07T01:08:36.139Z,10.40
2023-01-07T01:11:06.838Z,10.18
2023-01-07T01:13:34.036Z,10.40
2023-01-07T01:16:01.059Z,10.90
2023-01-07T01:18:28.055Z,9.60
2023-01-07T01:20:55.112Z,9.77
2023-01-07T01:23:22.114Z,10.82
2023-01-07T01:25:49.000Z,10.48
2023-01-07T01:28:15.984Z,10.98
2023-01-07T01:30:42.914Z,11.00
2023-01-07T01:33:11.049Z,12.98
2023-01-07T01:35:41.830Z,11.45
2023-01-07T01:38:09.709Z,10.13
2023-01-07T01:40:37.215Z,11.75
2023-01-07T01:43:05.749Z,9.43
2023-01-07T01:45:32.643Z,11.98
2023-01-07T01:48:04.514Z,9.10
2023-01-07T01:50:39.692Z,9.50
2023-01-07T01:53:15.583Z,8.63
2023-01-07T01:55:53.291Z,10.40
2023-01-07T01:58:24.202Z,9.63
2023-01-07T02:00:51.855Z,8.10
2023-01-07T02:03:19.974Z,8.85
2023-01-07T02:05:47.511Z,10.90
2023-01-07T02:08:21.905Z,11.55
2023-01-07T02:11:17.088Z,7.80
2023-01-07T02:13:54.305Z,9.48
2023-01-07T02:16:30.316Z,10.70
2023-01-07T02:19:00.329Z,11.52
2023-01-07T02:21:42.904Z,8.55
2023-01-07T02:27:00.712Z,10.63
2023-01-07T02:29:49.773Z,10.30
2023-01-07T02:32:30.092Z,9.77
2023-01-07T02:35:09.129Z,9.70
2023-01-07T02:37:49.597Z,9.13
2023-01-07T02:40:22.580Z,12.43
2023-01-07T02:42:56.915Z,9.27
2023-01-07T02:45:36.323Z,9.88
2023-01-07T02:48:11.689Z,9.63
2023-01-07T02:50:38.612Z,9.68
2023-01-07T02:53:06.670Z,10.52
2023-01-07T02:56:03.983Z,6.88
2023-01-07T02:58:46.049Z,7.80
2023-01-07T03:01:27.832Z,11.10
2023-01-07T03:04:30.125Z,9.63
2023-01-07T03:07:24.081Z,10.35
2023-01-07T03:10:01.789Z,8.82
2023-01-07T03:12:32.975Z,7.20
2023-01-07T03:15:28.998Z,10.43
2023-01-07T03:18:23.154Z,9.57
2023-01-07T03:20:52.307Z,9.27
2023-01-07T03:23:21.457Z,8.98
2023-01-07T03:25:48.395Z,11.30
2023-01-07T03:28:17.920Z,8.77
2023-01-07T03:30:45.373Z,12.45
2023-01-07T03:33:18.131Z,11.68
2023-01-07T03:35:47.183Z,11.27
2023-01-07T03:38:14.026Z,11.40
2023-01-07T03:40:40.975Z,10.30
2023-01-07T03:43:16.047Z,12.52
2023-01-07T03:45:42.955Z,13.60
2023-01-07T03:48:09.873Z,9.25
2023-01-07T03:50:38.630Z,8.40
2023-01-07T03:53:06.544Z,11.40
2023-01-07T03:55:35.842Z,10.23
2023-01-07T03:58:03.565Z,12.38
2023-01-07T04:00:30.459Z,11.40
2023-01-07T04:03:09.628Z,10.75
2023-01-07T04:05:40.262Z,10.88
2023-01-07T04:08:08.034Z,8.82
2023-01-07T04:10:38.748Z,12.18
2023-01-07T04:13:05.676Z,10.15
2023-01-07T04:15:32.682Z,8.93
2023-01-07T04:17:59.676Z,10.80
2023-01-07T04:20:28.006Z,9.35
2023-01-07T04:22:54.912Z,8.57
2023-01-07T04:25:21.801Z,12.30
2023-01-07T04:27:49.697Z,8.07
2023-01-07T04:30:16.597Z,11.68
2023-01-07T04:32:43.471Z,9.10
2023-01-07T04:35:10.941Z,9.13
2023-01-07T04:37:38.564Z,8.77
2023-01-07T04:40:06.763Z,11.75
2023-01-07T04:42:35.853Z,9.73
2023-01-07T04:45:03.941Z,9.43
2023-01-07T04:47:31.786Z,9.85
2023-01-07T04:49:59.345Z,9.52
2023-01-07T04:52:29.984Z,6.75
2023-01-07T04:54:59.129Z,11.10
2023-01-07T04:57:26.139Z,10.20
2023-01-07T04:59:53.689Z,10.52
2023-01-07T05:02:20.653Z,9.10
2023-01-07T05:04:48.131Z,8.80
2023-01-07T05:07:16.706Z,9.43
2023-01-07T05:09:43.867Z,9.52
2023-01-07T05:12:11.426Z,12.10
2023-01-07T05:14:38.760Z,7.30
2023-01-07T05:17:05.647Z,8.38
2023-01-07T05:19:33.137Z,10.85
2023-01-07T05:22:02.443Z,11.60
2023-01-07T05:24:29.980Z,9.38
2023-01-07T05:26:57.604Z,8.48
2023-01-07T05:29:24.515Z,10.15
2023-01-07T05:31:51.404Z,9.75
2023-01-07T05:34:18.376Z,11.30
2023-01-07T05:36:45.892Z,11.02
2023-01-07T05:39:14.159Z,9.68
2023-01-07T05:41:42.093Z,9.38
2023-01-07T05:44:09.124Z,9.40
2023-01-07T05:46:35.964Z,11.38
2023-01-07T05:49:03.084Z,8.93
2023-01-07T05:51:30.128Z,9.45
2023-01-07T05:53:56.970Z,8.57
2023-01-07T05:56:23.856Z,10.02
2023-01-07T05:58:50.652Z,8.60
2023-01-07T06:01:17.575Z,11.38
2023-01-07T06:03:44.981Z,9.90
2023-01-07T06:06:11.835Z,9.88
2023-01-07T06:08:38.891Z,10.77
2023-01-07T06:11:06.650Z,10.35
2023-01-07T06:13:33.838Z,8.13
2023-01-07T06:16:05.809Z,10.63
2023-01-07T06:18:32.814Z,12.05
2023-01-07T06:20:59.714Z,8.13
2023-01-07T06:23:26.665Z,10.27
2023-01-07T06:25:53.486Z,10.00
2023-01-07T06:28:20.373Z,9.40
2023-01-07T06:30:50.083Z,9.68
2023-01-07T06:33:17.087Z,8.65
2023-01-07T06:35:45.038Z,9.35
2023-01-07T06:38:12.010Z,9.30
2023-01-07T06:40:38.874Z,11.38
2023-01-07T06:43:05.798Z,9.52
2023-01-07T06:45:32.651Z,10.02
2023-01-07T06:47:59.677Z,13.07
2023-01-07T06:50:26.897Z,10.70
2023-01-07T06:52:53.898Z,12.32
2023-01-07T06:55:20.792Z,11.25
2023-01-07T06:57:47.630Z,7.93
2023-01-07T07:00:14.907Z,11.38
2023-01-07T07:02:41.818Z,11.43
2023-01-07T07:05:08.785Z,10.10
2023-01-07T07:07:35.913Z,11.30
2023-01-07T07:10:07.259Z,12.65
2023-01-07T07:12:38.195Z,10.88
2023-01-07T07:15:06.183Z,8.70
2023-01-07T07:17:33.024Z,11.02
2023-01-07T07:20:00.000Z,8.40
2023-01-07T07:22:26.915Z,13.95
2023-01-07T07:24:53.865Z,11.88
2023-01-07T07:27:20.756Z,9.23
2023-01-07T07:29:47.704Z,11.30
2023-01-07T07:32:14.552Z,13.82
2023-01-07T07:34:41.462Z,12.05
2023-01-07T07:37:08.443Z,10.48
2023-01-07T07:39:35.371Z,12.52
2023-01-07T07:42:03.736Z,9.52
2023-01-07T07:44:30.673Z,11.95
2023-01-07T07:46:57.674Z,11.35
2023-01-07T07:49:24.530Z,19.05
2023-01-07T07:51:51.437Z,13.05
2023-01-07T07:54:18.426Z,9.93
2023-01-07T07:56:45.285Z,10.18
2023-01-07T07:59:12.306Z,12.35
2023-01-07T08:01:39.354Z,12.30
2023-01-07T08:04:06.353Z,12.15
2023-01-07T08:06:34.290Z,10.68
2023-01-07T08:09:01.440Z,11.30
2023-01-07T08:11:28.361Z,12.27
2023-01-07T08:13:55.193Z,11.25
2023-01-07T08:16:22.152Z,13.88
2023-01-07T08:18:49.043Z,11.02
2023-01-07T08:21:16.066Z,11.00
2023-01-07T08:23:42.939Z,12.85
2023-01-07T08:26:09.902Z,12.43
2023-01-07T08:28:37.432Z,10.50
2023-01-07T08:31:05.220Z,10.57
2023-01-07T08:33:37.404Z,13.60
2023-01-07T08:36:09.301Z,11.38
2023-01-07T08:38:38.973Z,9.85
2023-01-07T08:41:06.017Z,10.75
2023-01-07T08:43:33.468Z,9.60
2023-01-07T08:46:00.431Z,11.82
2023-01-07T08:48:27.303Z,12.00
2023-01-07T08:50:54.461Z,13.80
2023-01-07T08:53:23.270Z,9.57
2023-01-07T08:55:50.314Z,10.30
2023-01-07T08:58:17.212Z,11.63
2023-01-07T09:00:44.175Z,13.57
2023-01-07T09:03:11.153Z,14.00
2023-01-07T09:05:38.037Z,8.93
2023-01-07T09:08:05.225Z,8.43
2023-01-07T09:10:32.101Z,10.98
2023-01-07T09:12:58.942Z,12.15
2023-01-07T09:15:25.885Z,12.88
2023-01-07T09:17:52.902Z,12.70
2023-01-07T09:20:20.164Z,11.90
2023-01-07T09:22:47.079Z,12.35
2023-01-07T09:25:13.967Z,7.57
2023-01-07T09:27:41.018Z,10.93
2023-01-07T09:30:09.443Z,7.75
2023-01-07T09:32:36.456Z,9.48
2023-01-07T09:35:04.322Z,8.55
2023-01-07T09:37:31.240Z,11.13
2023-01-07T09:40:00.345Z,11.82
2023-01-07T09:42:37.132Z,9.70
2023-01-07T09:45:25.230Z,10.80
2023-01-07T09:47:57.251Z,11.07
2023-01-07T09:50:27.316Z,9.93
2023-01-07T09:52:55.343Z,10.90
2023-01-07T09:55:31.428Z,12.48
2023-01-07T09:57:58.381Z,12.82
2023-01-07T10:00:25.534Z,13.13
2023-01-07T10:03:34.247Z,11.93
2023-01-07T10:06:07.917Z,9.40
2023-01-07T10:08:47.047Z,10.73
2023-01-07T10:11:23.002Z,10.15
2023-01-07T10:14:10.014Z,11.10
2023-01-07T10:16:42.668Z,11.15
2023-01-07T10:19:29.721Z,12.25
2023-01-07T10:22:02.781Z,10.45
2023-01-07T10:24:32.851Z,9.25
2023-01-07T10:27:04.792Z,10.15
2023-01-07T10:29:32.843Z,12.63
2023-01-07T10:32:03.287Z,11.80
2023-01-07T10:34:36.892Z,11.40
2023-01-07T10:37:26.362Z,10.00
2023-01-07T10:40:22.299Z,11.02
2023-01-07T10:43:17.062Z,13.75
2023-01-07T10:46:17.862Z,10.25
2023-01-07T10:49:01.105Z,11.40
2023-01-07T10:51:55.727Z,11.88
2023-01-07T10:55:03.954Z,9.32
2023-01-07T10:57:31.550Z,16.02
2023-01-07T11:00:02.980Z,12.02
2023-01-07T11:02:30.468Z,12.93
2023-01-07T11:04:57.791Z,13.57
2023-01-07T11:07:43.918Z,11.35
2023-01-07T11:10:25.291Z,12.88
2023-01-07T11:13:14.305Z,10.88
2023-01-07T11:16:04.377Z,14.07
2023-01-07T11:18:34.724Z,12.48
2023-01-07T11:21:01.702Z,11.50
2023-01-07T11:23:35.340Z,12.90
2023-01-07T11:26:28.866Z,11.23
2023-01-07T11:28:56.546Z,13.30
2023-01-07T11:31:29.070Z,18.50
2023-01-07T11:34:03.176Z,12.15
2023-01-07T11:36:42.003Z,13.93
2023-01-07T11:39:11.034Z,14.68
2023-01-07T11:41:40.148Z,13.65
2023-01-07T11:44:15.381Z,11.07
2023-01-07T11:46:44.165Z,9.95
2023-01-07T11:49:23.646Z,10.13
2023-01-07T11:51:50.718Z,10.43
2023-01-07T11:54:27.885Z,10.30
2023-01-07T11:57:14.167Z,10.00
2023-01-07T11:59:41.084Z,11.00
2023-01-07T12:02:23.634Z,10.57
2023-01-07T12:07:17.434Z,12.20
2023-01-07T12:09:44.871Z,11.88
2023-01-07T12:12:39.268Z,13.10
2023-01-07T12:15:21.691Z,11.43
2023-01-07T12:18:07.808Z,10.30
2023-01-07T12:21:12.941Z,11.18
2023-01-07T12:23:49.112Z,10.90
2023-01-07T12:26:21.166Z,13.48
2023-01-07T12:29:06.901Z,12.48
2023-01-07T12:32:04.707Z,9.27
2023-01-07T12:34:56.064Z,15.05
2023-01-07T12:37:32.267Z,13.15
2023-01-07T12:40:23.249Z,20.27
2023-01-07T12:43:29.332Z,10.88
2023-01-07T12:46:11.760Z,11.52
2023-01-07T12:49:13.629Z,13.55
2023-01-07T12:52:05.159Z,11.70
2023-01-07T12:55:04.172Z,14.38
2023-01-07T12:57:34.142Z,10.93
2023-01-07T13:00:08.392Z,10.35
2023-01-07T13:02:48.428Z,14.07
2023-01-07T13:05:28.974Z,13.43
2023-01-07T13:08:04.633Z,9.02
2023-01-07T13:10:47.937Z,12.68
2023-01-07T13:13:28.108Z,12.40
2023-01-07T13:15:58.089Z,12.70
2023-01-07T13:18:29.018Z,12.32
2023-01-07T13:21:01.949Z,13.07
2023-01-07T13:23:50.566Z,10.32
2023-01-07T13:26:48.306Z,12.45
2023-01-07T13:29:24.867Z,11.93
2023-01-07T13:32:27.310Z,10.73
2023-01-07T13:35:19.165Z,11.80
2023-01-07T13:38:18.135Z,12.27
2023-01-07T13:41:13.781Z,12.23
2023-01-07T13:44:21.863Z,12.25
2023-01-07T13:46:49.002Z,13.85
2023-01-07T13:49:29.832Z,16.65
2023-01-07T13:52:04.768Z,10.82
2023-01-07T13:55:02.227Z,12.30
2023-01-07T13:57:32.200Z,13.27
2023-01-07T14:00:06.733Z,10.30
2023-01-07T14:02:57.582Z,11.45
2023-01-07T14:05:26.085Z,12.20
2023-01-07T14:08:03.467Z,12.82
2023-01-07T14:10:37.253Z,10.15
2023-01-07T14:13:07.260Z,11.55
2023-01-07T14:16:00.317Z,9.93
2023-01-07T14:18:55.343Z,14.57
2023-01-07T14:21:44.342Z,9.65
2023-01-07T14:24:29.920Z,11.88
2023-01-07T14:27:04.346Z,9.93
2023-01-07T14:29:34.741Z,13.63
2023-01-07T14:32:29.197Z,13.85
2023-01-07T14:35:01.127Z,9.45
2023-01-07T14:37:31.210Z,11.80
2023-01-07T14:39:58.145Z,12.75
2023-01-07T14:42:44.177Z,14.73
2023-01-07T14:45:36.160Z,11.70
2023-01-07T14:48:08.876Z,10.17
2023-01-07T14:50:40.269Z,10.90
2023-01-07T14:53:33.625Z,14.13
2023-01-07T14:56:08.740Z,10.23
2023-01-07T14:58:40.844Z,14.35
2023-01-07T15:01:32.653Z,10.10
2023-01-07T15:04:14.581Z,9.67
2023-01-07T15:06:41.937Z,12.27
2023-01-07T15:09:39.335Z,13.82
2023-01-07T15:12:27.400Z,9.10
2023-01-07T15:15:33.044Z,14.73
2023-01-07T15:17:59.941Z,12.48
2023-01-07T15:20:29.977Z,11.27
2023-01-07T15:23:27.948Z,12.35
2023-01-07T15:25:59.751Z,9.40
2023-01-07T15:28:35.673Z,12.82
2023-01-07T15:31:05.630Z,9.77
2023-01-07T15:34:12.555Z,8.00
2023-01-07T15:36:46.046Z,9.18
2023-01-07T15:39:23.431Z,11.18
2023-01-07T15:41:59.480Z,9.70
2023-01-07T15:44:32.658Z,9.65
2023-01-07T15:46:59.601Z,8.77
2023-01-07T15:49:27.892Z,9.10
2023-01-07T15:51:56.982Z,10.18
2023-01-07T15:54:37.264Z,10.77
2023-01-07T15:57:11.621Z,10.43
2023-01-07T15:59:49.395Z,8.82
2023-01-07T16:02:32.685Z,14.32
2023-01-07T16:05:01.678Z,12.32
2023-01-07T16:07:30.863Z,14.70
2023-01-07T16:09:58.254Z,16.08
2023-01-07T16:12:38.275Z,16.50
2023-01-07T16:15:24.911Z,16.73
2023-01-07T16:17:59.542Z,18.05
2023-01-07T16:20:30.444Z,19.42
2023-01-07T16:23:01.448Z,19.48
2023-01-07T16:25:33.756Z,16.48
2023-01-07T16:28:00.709Z,15.70
2023-01-07T16:30:27.590Z,20.13
2023-01-07T16:32:54.751Z,21.85
2023-01-07T16:35:30.429Z,17.98
2023-01-07T16:37:57.398Z,20.08
2023-01-07T16:40:31.489Z,19.83
2023-01-07T16:42:58.450Z,19.33
2023-01-07T16:45:30.327Z,15.13
2023-01-07T16:48:01.185Z,20.50
2023-01-07T16:50:34.946Z,14.40
2023-01-07T16:53:01.776Z,13.38
2023-01-07T16:55:52.102Z,13.02
2023-01-07T16:58:42.005Z,14.70
2023-01-07T17:01:11.326Z,18.00
2023-01-07T17:03:57.388Z,14.15
2023-01-07T17:06:44.652Z,10.57
2023-01-07T17:09:35.975Z,16.92
2023-01-07T17:12:03.279Z,15.25
2023-01-07T17:14:44.014Z,15.13
2023-01-07T17:17:16.976Z,13.07
2023-01-07T17:20:06.878Z,17.30
2023-01-07T17:22:40.641Z,16.52
2023-01-07T17:25:15.309Z,17.30
2023-01-07T17:27:49.726Z,19.23
2023-01-07T17:30:19.040Z,14.02
2023-01-07T17:32:46.867Z,18.55
2023-01-07T17:35:18.877Z,17.20
2023-01-07T17:37:45.901Z,15.32
2023-01-07T17:40:13.314Z,14.65
2023-01-07T17:42:58.775Z,17.02
2023-01-07T17:45:25.797Z,14.70
2023-01-07T17:47:52.867Z,16.67
2023-01-07T17:50:20.107Z,17.23
2023-01-07T17:52:48.867Z,15.73
2023-01-07T17:55:22.036Z,18.35
2023-01-07T17:57:48.897Z,17.00
2023-01-07T18:00:20.266Z,14.02
2023-01-07T18:02:47.592Z,18.33
2023-01-07T18:05:22.104Z,15.45
2023-01-07T18:07:49.618Z,9.48
2023-01-07T18:10:20.166Z,13.20
2023-01-07T18:12:47.108Z,10.32
2023-01-07T18:15:21.492Z,12.20
2023-01-07T18:17:48.531Z,8.57
2023-01-07T18:20:17.621Z,8.93
2023-01-07T18:22:44.631Z,4.20
2023-01-07T18:25:15.362Z,6.25
2023-01-07T18:27:42.249Z,4.38
2023-01-07T18:30:14.949Z,4.78
2023-01-07T18:32:42.454Z,4.72
2023-01-07T18:35:10.032Z,2.72
2023-01-07T18:37:37.081Z,4.82
2023-01-07T18:40:05.746Z,3.17
2023-01-07T18:42:33.481Z,4.00
2023-01-07T18:45:00.478Z,4.00
2023-01-07T18:47:27.396Z,3.75
2023-01-07T18:49:54.294Z,6.00
2023-01-07T18:52:21.225Z,5.13
2023-01-07T18:54:48.252Z,2.30
2023-01-07T18:57:15.304Z,4.00
2023-01-07T18:59:44.616Z,4.65
2023-01-07T19:02:14.819Z,5.60
2023-01-07T19:04:41.860Z,5.35
2023-01-07T19:07:08.895Z,8.20
2023-01-07T19:09:38.594Z,7.22
2023-01-07T19:12:06.360Z,4.72
2023-01-07T19:14:33.864Z,7.25
2023-01-07T19:17:00.854Z,7.88
2023-01-07T19:19:32.062Z,6.85
2023-01-07T19:22:01.235Z,7.03
2023-01-07T19:24:28.106Z,8.35
2023-01-07T19:26:55.026Z,12.93
2023-01-07T19:29:21.925Z,9.13
2023-01-07T19:31:48.843Z,10.30
2023-01-07T19:34:15.853Z,11.23
2023-01-07T19:36:46.690Z,12.50
2023-01-07T19:39:15.652Z,10.27
2023-01-07T19:41:42.941Z,12.02
2023-01-07T19:44:15.523Z,17.75
2023-01-07T19:46:43.996Z,11.73
2023-01-07T19:49:13.462Z,13.75
2023-01-07T19:51:41.185Z,13.40
2023-01-07T19:54:09.689Z,11.77
2023-01-07T19:56:36.752Z,10.10
2023-01-07T19:59:03.695Z,10.18
2023-01-07T20:01:30.799Z,14.95
2023-01-07T20:03:58.443Z,11.70
2023-01-07T20:06:26.975Z,13.82
2023-01-07T20:08:54.703Z,10.63
2023-01-07T20:11:22.856Z,18.65
2023-01-07T20:13:52.230Z,13.43
2023-01-07T20:16:23.001Z,16.33
2023-01-07T20:18:51.376Z,16.55
2023-01-07T20:21:19.750Z,17.17
2023-01-07T20:23:46.745Z,12.00
2023-01-07T20:26:21.251Z,13.30
2023-01-07T20:28:48.209Z,13.45
2023-01-07T20:31:16.259Z,11.63
2023-01-07T20:33:43.515Z,12.73
2023-01-07T20:36:18.359Z,10.73
2023-01-07T20:38:47.947Z,15.70
2023-01-07T20:41:19.407Z,15.40
2023-01-07T20:43:55.708Z,13.50
2023-01-07T20:46:25.600Z,14.55
2023-01-07T20:48:52.672Z,18.45
2023-01-07T20:51:19.529Z,14.35
2023-01-07T20:53:47.049Z,13.18
2023-01-07T20:56:15.713Z,14.65
2023-01-07T20:58:42.587Z,16.23
2023-01-07T21:01:14.354Z,16.45
2023-01-07T21:03:41.546Z,14.98
2023-01-07T21:06:10.080Z,19.75
2023-01-07T21:08:37.521Z,12.27
2023-01-07T21:11:07.511Z,15.65
2023-01-07T21:13:34.368Z,20.25
2023-01-07T21:16:03.228Z,13.35
2023-01-07T21:18:30.843Z,14.98
2023-01-07T21:20:57.811Z,14.48
2023-01-07T21:23:27.084Z,19.17
2023-01-07T21:25:54.024Z,20.42
2023-01-07T21:28:21.072Z,18.70
2023-01-07T21:30:47.942Z,16.85
2023-01-07T21:33:15.788Z,18.77
2023-01-07T21:35:42.584Z,20.23
2023-01-07T21:38:09.459Z,14.52
2023-01-07T21:40:40.297Z,16.38
2023-01-07T21:43:07.173Z,14.85
2023-01-07T21:45:34.211Z,22.80
2023-01-07T21:48:02.613Z,18.50
2023-01-07T21:50:29.424Z,21.45
2023-01-07T21:52:56.237Z,21.95
2023-01-07T21:55:23.227Z,22.38
2023-01-07T21:57:50.045Z,16.27
2023-01-07T22:00:17.196Z,17.10
2023-01-07T22:02:44.857Z,22.65
2023-01-07T22:05:12.073Z,17.33
2023-01-07T22:07:39.281Z,23.00
2023-01-07T22:10:06.579Z,22.55
2023-01-07T22:12:33.570Z,16.50
2023-01-07T22:15:00.764Z,23.55
2023-01-07T22:17:27.640Z,22.63
2023-01-07T22:19:54.545Z,21.60
2023-01-07T22:22:21.417Z,19.40
2023-01-07T22:24:48.341Z,18.88
2023-01-07T22:27:15.245Z,21.58
2023-01-07T22:29:42.261Z,19.08
2023-01-07T22:32:09.100Z,16.65
2023-01-07T22:34:36.004Z,23.10
2023-01-07T22:37:12.453Z,18.60
2023-01-07T22:39:41.744Z,23.73
2023-01-07T22:42:17.397Z,22.08
2023-01-07T22:44:47.178Z,19.15
2023-01-07T22:47:15.793Z,24.17
2023-01-07T22:49:43.008Z,19.58
2023-01-07T22:52:10.527Z,25.55
2023-01-07T22:54:37.512Z,17.88
2023-01-07T22:57:09.376Z,19.55
2023-01-07T22:59:36.665Z,25.45
2023-01-07T23:02:03.846Z,20.55
2023-01-07T23:04:30.875Z,23.50
2023-01-07T23:06:58.032Z,20.73
2023-01-07T23:09:25.162Z,18.35
2023-01-07T23:11:52.197Z,18.60
2023-01-07T23:14:20.811Z,22.63
2023-01-07T23:16:48.008Z,16.83
2023-01-07T23:19:17.917Z,20.50
2023-01-07T23:21:46.262Z,25.02
2023-01-07T23:24:13.316Z,24.02
2023-01-07T23:26:40.648Z,24.58
2023-01-07T23:29:07.869Z,21.80
2023-01-07T23:31:35.231Z,29.42
2023-01-07T23:34:02.926Z,20.23
2023-01-07T23:36:30.008Z,21.23
2023-01-07T23:38:56.880Z,21.63
2023-01-07T23:41:23.797Z,16.55
2023-01-07T23:43:50.720Z,23.58
2023-01-07T23:46:17.767Z,20.08
2023-01-07T23:48:44.621Z,19.95
2023-01-07T23:51:18.449Z,23.48
2023-01-07T23:53:45.472Z,21.02
2023-01-07T23:56:12.948Z,22.88
2023-01-07T23:58:39.926Z,23.98
